Time;durP1;ratioP1;P1;durP2;ratioP2;P2;SDS_P1;SDS_P2;PMS_P1;PMS_P2;Temp;Humidity;BMP_temperature;BMP_pressure;BME280_temperature;BME280_humidity;BME280_pressure;Samples;Min_cycle;Max_cycle;Signal;HPM_P1;HPM_P2
2021/07/24 00:01:44;;;;;;;13.05;8.30;;;19.00;78.60;;;;;;5040306;28;20094;-85
2021/07/24 00:04:10;;;;;;;12.57;8.80;;;19.10;78.60;;;;;;5057290;28;20028;-84
2021/07/24 00:06:36;;;;;;;11.27;8.30;;;19.10;78.60;;;;;;5065463;28;20499;-84
2021/07/24 00:09:04;;;;;;;13.35;8.50;;;19.00;78.50;;;;;;5069944;28;20037;-84
2021/07/24 00:11:30;;;;;;;13.80;8.75;;;19.10;78.50;;;;;;5058280;28;20056;-84
2021/07/24 00:13:56;;;;;;;13.73;9.20;;;19.10;78.40;;;;;;5062250;28;20024;-84
2021/07/24 00:16:22;;;;;;;12.27;9.18;;;19.00;78.50;;;;;;5088346;28;20083;-84
2021/07/24 00:18:47;;;;;;;13.60;8.90;;;18.90;78.70;;;;;;5061902;28;20412;-84
2021/07/24 00:21:13;;;;;;;25.13;9.75;;;18.90;79.00;;;;;;5067243;28;20037;-85
2021/07/24 00:23:39;;;;;;;16.17;8.93;;;18.90;79.10;;;;;;5069198;28;20077;-85
2021/07/24 00:26:04;;;;;;;13.38;9.35;;;18.90;79.20;;;;;;5066159;28;20112;-84
2021/07/24 00:28:30;;;;;;;15.50;9.73;;;18.80;79.30;;;;;;5065238;28;20033;-84
2021/07/24 00:30:55;;;;;;;17.33;9.77;;;18.80;79.40;;;;;;5065042;28;20080;-84
2021/07/24 00:33:21;;;;;;;12.55;9.52;;;18.70;79.70;;;;;;5071305;28;20158;-84
2021/07/24 00:35:47;;;;;;;14.57;9.70;;;18.70;79.90;;;;;;5072014;28;20116;-84
2021/07/24 00:38:12;;;;;;;13.77;9.85;;;18.70;80.10;;;;;;5073440;28;20029;-85
2021/07/24 00:40:43;;;;;;;12.70;10.15;;;18.60;80.20;;;;;;5071903;28;20047;-84
2021/07/24 00:43:10;;;;;;;16.63;10.02;;;18.60;80.40;;;;;;5058657;28;20103;-85
2021/07/24 00:45:46;;;;;;;15.88;9.73;;;18.50;80.40;;;;;;5070067;28;20518;-85
2021/07/24 00:48:20;;;;;;;15.38;9.35;;;18.50;80.80;;;;;;5074656;28;20027;-84
2021/07/24 00:50:50;;;;;;;14.60;10.25;;;18.50;80.90;;;;;;5072701;28;20070;-85
2021/07/24 00:53:24;;;;;;;13.90;10.50;;;18.40;81.00;;;;;;5073111;28;20040;-84
2021/07/24 00:55:53;;;;;;;13.93;10.05;;;18.40;81.10;;;;;;5072966;28;20056;-84
2021/07/24 00:58:30;;;;;;;13.55;9.90;;;18.40;81.30;;;;;;5056933;28;20142;-84
2021/07/24 01:00:56;;;;;;;17.02;9.80;;;18.40;81.50;;;;;;5063159;28;20025;-84
2021/07/24 01:03:22;;;;;;;14.55;9.77;;;18.30;81.40;;;;;;5059938;28;20021;-84
2021/07/24 01:05:51;;;;;;;13.95;10.82;;;18.30;81.60;;;;;;5053165;28;20107;-84
2021/07/24 01:08:17;;;;;;;20.70;10.55;;;18.30;81.90;;;;;;5057460;28;20021;-84
2021/07/24 01:10:43;;;;;;;15.10;11.05;;;18.20;81.80;;;;;;5061759;28;20040;-84
2021/07/24 01:13:09;;;;;;;15.13;11.63;;;18.20;81.80;;;;;;5063952;28;20025;-84
2021/07/24 01:15:34;;;;;;;17.55;10.82;;;18.20;82.00;;;;;;5062507;28;20051;-84
2021/07/24 01:18:00;;;;;;;16.90;12.00;;;18.20;82.10;;;;;;5052908;28;20026;-84
2021/07/24 01:20:27;;;;;;;16.95;11.13;;;18.10;82.10;;;;;;5055667;28;20035;-85
2021/07/24 01:22:54;;;;;;;14.40;10.98;;;18.20;82.10;;;;;;5073937;28;20033;-85
2021/07/24 01:25:19;;;;;;;17.73;11.30;;;18.10;82.20;;;;;;5069233;28;20028;-84
2021/07/24 01:27:45;;;;;;;15.25;10.77;;;18.10;82.40;;;;;;5059446;28;20500;-84
2021/07/24 01:30:12;;;;;;;17.27;11.05;;;18.00;82.50;;;;;;5056808;28;20021;-84
2021/07/24 01:32:38;;;;;;;17.08;12.10;;;18.00;82.70;;;;;;5054121;28;20032;-84
2021/07/24 01:35:04;;;;;;;17.35;11.43;;;17.90;82.80;;;;;;5061128;28;20445;-84
2021/07/24 01:37:30;;;;;;;16.45;11.82;;;17.90;83.00;;;;;;5065885;28;20028;-84
2021/07/24 01:39:56;;;;;;;18.42;10.73;;;17.80;83.10;;;;;;5055336;28;20043;-84
2021/07/24 01:42:22;;;;;;;20.77;11.45;;;17.80;83.20;;;;;;5055307;28;20117;-85
2021/07/24 01:44:47;;;;;;;17.08;10.10;;;17.90;83.30;;;;;;5067731;28;20044;-84
2021/07/24 01:47:13;;;;;;;16.42;10.45;;;17.80;83.30;;;;;;5075036;28;20028;-84
2021/07/24 01:52:47;;;;;;;14.13;10.35;;;17.90;83.20;;;;;;5067523;28;20039;-84
2021/07/24 01:55:23;;;;;;;16.85;11.95;;;17.80;83.20;;;;;;5058837;28;20037;-84
2021/07/24 01:57:51;;;;;;;14.10;10.25;;;17.80;83.20;;;;;;5065275;28;20028;-84
2021/07/24 02:00:18;;;;;;;13.45;10.73;;;17.80;83.40;;;;;;5057368;28;20028;-84
2021/07/24 02:02:45;;;;;;;17.65;12.73;;;17.80;83.50;;;;;;5035537;28;20107;-85
2021/07/24 02:05:18;;;;;;;16.20;11.27;;;17.80;83.50;;;;;;5070651;28;20538;-85
2021/07/24 02:07:47;;;;;;;15.80;11.93;;;17.80;83.60;;;;;;5069600;28;20040;-85
2021/07/24 02:10:12;;;;;;;15.52;11.13;;;17.70;83.60;;;;;;5072825;28;20035;-84
2021/07/24 02:12:38;;;;;;;14.90;10.30;;;17.70;83.70;;;;;;5070329;28;20045;-84
2021/07/24 02:15:04;;;;;;;21.55;12.45;;;17.70;83.70;;;;;;5061427;28;20028;-84
2021/07/24 02:17:33;;;;;;;15.52;11.88;;;17.70;83.80;;;;;;5073024;28;20028;-84
2021/07/24 02:20:03;;;;;;;16.40;10.88;;;17.70;83.90;;;;;;5060153;28;20033;-84
2021/07/24 02:22:28;;;;;;;20.60;11.77;;;17.70;84.00;;;;;;5051719;28;20108;-84
2021/07/24 02:24:54;;;;;;;14.70;11.48;;;17.60;83.80;;;;;;5057978;28;20108;-84
2021/07/24 02:27:20;;;;;;;14.60;11.95;;;17.60;83.90;;;;;;5088532;28;20032;-84
2021/07/24 02:29:45;;;;;;;15.23;11.48;;;17.70;84.00;;;;;;5072474;28;20058;-84
2021/07/24 02:32:11;;;;;;;15.90;11.98;;;17.60;84.10;;;;;;5052486;28;20083;-84
2021/07/24 02:34:37;;;;;;;14.35;11.07;;;17.60;84.20;;;;;;5072959;28;20067;-84
2021/07/24 02:37:02;;;;;;;16.88;11.45;;;17.60;84.10;;;;;;5061175;28;20035;-84
2021/07/24 02:39:28;;;;;;;15.13;12.25;;;17.60;84.10;;;;;;5065994;28;20025;-84
2021/07/24 02:41:53;;;;;;;18.70;11.77;;;17.60;84.20;;;;;;5058564;28;20039;-84
2021/07/24 02:44:19;;;;;;;14.55;11.52;;;17.50;84.40;;;;;;5065889;28;20421;-84
2021/07/24 02:46:45;;;;;;;17.60;11.25;;;17.50;84.50;;;;;;5055354;28;20044;-84
2021/07/24 02:49:12;;;;;;;19.95;12.80;;;17.50;84.70;;;;;;5041475;28;20535;-84
2021/07/24 02:51:37;;;;;;;16.80;11.75;;;17.40;84.70;;;;;;5051706;28;20029;-85
2021/07/24 02:54:03;;;;;;;19.85;12.15;;;17.40;85.60;;;;;;5062864;28;20044;-84
2021/07/24 02:56:29;;;;;;;19.55;11.98;;;17.40;85.10;;;;;;5082600;28;20489;-84
2021/07/24 02:58:55;;;;;;;15.60;11.77;;;17.30;85.10;;;;;;5060193;28;20040;-84
2021/07/24 03:01:20;;;;;;;16.35;12.52;;;17.30;85.30;;;;;;5061265;28;20029;-85
2021/07/24 03:03:46;;;;;;;18.23;11.93;;;17.30;85.50;;;;;;5054057;28;20029;-84
2021/07/24 03:06:11;;;;;;;18.90;12.15;;;17.20;85.60;;;;;;5055203;28;20440;-85
2021/07/24 03:08:37;;;;;;;15.93;11.77;;;17.20;85.80;;;;;;5041278;28;20033;-83
2021/07/24 03:11:03;;;;;;;17.88;12.10;;;17.20;85.90;;;;;;5064484;28;20108;-84
2021/07/24 03:13:28;;;;;;;17.23;11.90;;;17.20;85.90;;;;;;5071361;28;20044;-85
2021/07/24 03:15:54;;;;;;;17.02;12.82;;;17.20;86.00;;;;;;5064175;28;20025;-84
2021/07/24 03:18:19;;;;;;;16.38;12.45;;;17.10;86.20;;;;;;5061279;28;20027;-84
2021/07/24 03:20:45;;;;;;;18.58;13.15;;;17.10;86.30;;;;;;5069308;28;20024;-84
2021/07/24 03:23:11;;;;;;;19.58;14.23;;;17.00;86.40;;;;;;5064349;28;20025;-84
2021/07/24 03:25:40;;;;;;;17.17;12.40;;;17.00;86.60;;;;;;5075153;28;20032;-84
2021/07/24 03:28:06;;;;;;;18.55;12.48;;;17.00;86.70;;;;;;5068528;28;20027;-84
2021/07/24 03:30:31;;;;;;;20.42;11.98;;;17.00;86.60;;;;;;5068300;28;20036;-84
2021/07/24 03:32:57;;;;;;;16.13;12.77;;;17.00;86.60;;;;;;5063040;28;20025;-84
2021/07/24 03:35:23;;;;;;;17.52;11.63;;;17.00;86.50;;;;;;5062227;28;20469;-85
2021/07/24 03:37:48;;;;;;;19.80;12.82;;;17.10;86.50;;;;;;5060295;28;20041;-84
2021/07/24 03:40:14;;;;;;;20.45;13.13;;;17.10;87.10;;;;;;5065146;28;20031;-84
2021/07/24 03:42:39;;;;;;;20.52;12.88;;;17.10;86.50;;;;;;5066083;28;20029;-85
2021/07/24 03:45:05;;;;;;;16.65;12.63;;;17.10;86.40;;;;;;5070841;28;20024;-85
2021/07/24 03:47:34;;;;;;;18.67;12.18;;;17.10;86.50;;;;;;5068777;28;20093;-84
2021/07/24 03:49:59;;;;;;;20.38;13.43;;;17.20;87.20;;;;;;5070704;28;20028;-84
2021/07/24 03:52:25;;;;;;;18.92;13.45;;;17.20;86.30;;;;;;5054533;28;20045;-84
2021/07/24 03:54:51;;;;;;;22.10;13.43;;;17.20;86.30;;;;;;5068762;28;20417;-84
2021/07/24 03:57:16;;;;;;;18.13;12.60;;;17.20;86.30;;;;;;5037809;28;20125;-84
2021/07/24 03:59:42;;;;;;;16.13;12.32;;;17.20;86.30;;;;;;5061910;28;20055;-84
2021/07/24 04:02:12;;;;;;;15.73;11.25;;;17.30;86.20;;;;;;5067282;28;20099;-84
2021/07/24 04:04:37;;;;;;;15.45;11.63;;;17.30;86.20;;;;;;5065888;28;20017;-84
2021/07/24 04:07:04;;;;;;;16.27;13.32;;;17.30;86.20;;;;;;5073638;28;20405;-84
2021/07/24 04:09:32;;;;;;;19.45;13.18;;;17.30;86.10;;;;;;5066604;28;20033;-84
2021/07/24 04:11:58;;;;;;;18.90;12.57;;;17.30;86.00;;;;;;5073929;28;20035;-83
2021/07/24 04:14:23;;;;;;;16.70;12.10;;;17.30;86.00;;;;;;5067961;28;20041;-84
2021/07/24 04:16:49;;;;;;;18.58;12.75;;;17.30;86.00;;;;;;5062354;28;20036;-84
2021/07/24 04:19:15;;;;;;;21.60;12.88;;;17.40;86.00;;;;;;5067214;28;20116;-84
2021/07/24 04:21:41;;;;;;;16.13;11.93;;;17.40;86.00;;;;;;5070795;28;20032;-84
2021/07/24 04:24:06;;;;;;;19.55;12.80;;;17.40;86.00;;;;;;5058211;28;20024;-85
2021/07/24 04:26:32;;;;;;;17.95;11.77;;;17.40;86.00;;;;;;5065953;28;20040;-84
2021/07/24 04:28:59;;;;;;;16.45;12.40;;;17.40;86.00;;;;;;5071651;28;20043;-84
2021/07/24 04:31:24;;;;;;;16.02;11.43;;;17.40;86.00;;;;;;5058686;28;20028;-84
2021/07/24 04:33:50;;;;;;;21.95;12.93;;;17.50;86.00;;;;;;5070474;28;20485;-84
2021/07/24 04:36:16;;;;;;;17.95;12.38;;;17.50;85.90;;;;;;5040271;28;20040;-84
2021/07/24 04:38:42;;;;;;;16.13;11.70;;;17.50;85.80;;;;;;5062467;28;20444;-84
2021/07/24 04:41:07;;;;;;;19.02;13.07;;;17.60;85.90;;;;;;5062127;28;20031;-84
2021/07/24 04:43:33;;;;;;;17.45;12.40;;;17.60;85.70;;;;;;5071996;28;20020;-84
2021/07/24 04:45:59;;;;;;;15.93;12.18;;;17.60;85.70;;;;;;5068994;28;20527;-85
2021/07/24 04:48:24;;;;;;;14.43;11.60;;;17.60;85.60;;;;;;5075545;28;20501;-85
2021/07/24 04:50:54;;;;;;;21.00;11.98;;;17.70;85.60;;;;;;5072432;28;20520;-84
2021/07/24 04:53:21;;;;;;;18.90;11.73;;;17.70;85.50;;;;;;5074452;28;20505;-84
2021/07/24 04:55:47;;;;;;;20.85;13.48;;;17.70;85.30;;;;;;5056620;28;20036;-84
2021/07/24 04:58:14;;;;;;;16.90;12.30;;;17.70;85.30;;;;;;5073295;28;20035;-84
2021/07/24 05:00:42;;;;;;;20.00;11.73;;;17.80;85.60;;;;;;5069831;28;20052;-84
2021/07/24 05:03:09;;;;;;;14.63;11.32;;;17.80;85.30;;;;;;5089957;28;20028;-84
2021/07/24 05:05:36;;;;;;;15.18;11.70;;;17.90;85.30;;;;;;5059364;28;20024;-84
2021/07/24 05:08:04;;;;;;;21.30;12.88;;;17.90;85.10;;;;;;5073029;28;20519;-84
2021/07/24 05:10:30;;;;;;;15.15;12.10;;;17.90;85.00;;;;;;5074148;28;20485;-84
2021/07/24 05:12:56;;;;;;;21.08;12.82;;;18.00;84.90;;;;;;5068168;28;20048;-84
2021/07/24 05:15:21;;;;;;;16.27;11.85;;;18.00;84.90;;;;;;5074317;28;20048;-84
2021/07/24 05:17:47;;;;;;;16.58;11.95;;;18.10;85.00;;;;;;5073137;28;20033;-84
2021/07/24 05:20:13;;;;;;;17.15;12.15;;;18.10;85.00;;;;;;5074466;28;20122;-84
2021/07/24 05:22:38;;;;;;;20.63;12.13;;;18.10;84.80;;;;;;5073008;28;20021;-84
2021/07/24 05:25:04;;;;;;;15.00;10.88;;;18.10;84.70;;;;;;5073064;28;20115;-84
2021/07/24 05:27:30;;;;;;;20.27;12.88;;;18.10;84.80;;;;;;5074409;28;20040;-84
2021/07/24 05:29:56;;;;;;;18.92;12.10;;;18.10;84.70;;;;;;5072839;28;20032;-84
2021/07/24 05:32:22;;;;;;;20.88;12.95;;;18.10;84.70;;;;;;5074245;28;20033;-84
2021/07/24 05:34:47;;;;;;;15.73;12.32;;;18.10;84.80;;;;;;5073001;28;20358;-84
2021/07/24 05:37:13;;;;;;;21.25;12.65;;;18.10;84.80;;;;;;5074042;28;20032;-83
2021/07/24 05:39:38;;;;;;;27.38;12.73;;;18.10;84.90;;;;;;5072906;28;20549;-84
2021/07/24 05:42:04;;;;;;;23.15;12.52;;;18.20;85.10;;;;;;5073292;28;20037;-84
2021/07/24 05:44:30;;;;;;;16.42;12.73;;;18.20;85.10;;;;;;5072864;28;20021;-84
2021/07/24 05:46:58;;;;;;;15.80;12.25;;;18.20;85.10;;;;;;5052635;28;20025;-84
2021/07/24 05:49:24;;;;;;;18.03;12.27;;;18.20;85.10;;;;;;5057550;28;20021;-84
2021/07/24 05:51:49;;;;;;;16.85;11.98;;;18.30;85.80;;;;;;5072575;28;20277;-84
2021/07/24 05:54:17;;;;;;;20.55;12.90;;;18.30;85.10;;;;;;5072424;28;20055;-84
2021/07/24 05:56:42;;;;;;;20.75;12.73;;;18.40;84.90;;;;;;5062162;28;20029;-84
2021/07/24 05:59:08;;;;;;;22.75;12.85;;;18.40;84.80;;;;;;5052864;28;20025;-84
2021/07/24 06:01:33;;;;;;;17.40;12.00;;;18.50;84.80;;;;;;5062665;28;20033;-84
2021/07/24 06:03:59;;;;;;;18.90;12.05;;;18.50;84.50;;;;;;5073190;28;20040;-84
2021/07/24 06:06:25;;;;;;;22.35;12.48;;;18.60;84.40;;;;;;5055877;28;20062;-84
2021/07/24 06:08:51;;;;;;;22.23;12.68;;;18.70;84.20;;;;;;5072484;28;20489;-84
2021/07/24 06:11:16;;;;;;;20.73;12.48;;;18.70;84.10;;;;;;5073641;28;20034;-84
2021/07/24 06:13:42;;;;;;;20.05;13.45;;;18.70;84.00;;;;;;5074135;28;20421;-85
2021/07/24 06:16:11;;;;;;;22.08;13.90;;;18.70;84.00;;;;;;5074186;28;20035;-84
2021/07/24 06:18:37;;;;;;;;;;;18.70;84.30;;;;;;5072621;28;20453;-84
2021/07/24 06:21:02;;;;;;;23.35;12.93;;;18.70;84.20;;;;;;5073493;28;19904;-84
2021/07/24 06:23:28;;;;;;;20.75;13.50;;;18.70;84.50;;;;;;5073458;28;20028;-84
2021/07/24 06:25:54;;;;;;;23.42;13.25;;;18.70;84.60;;;;;;5072337;28;20051;-84
2021/07/24 06:28:21;;;;;;;19.55;13.27;;;18.80;84.50;;;;;;5073317;28;20104;-84
2021/07/24 06:30:47;;;;;;;18.23;11.77;;;18.80;84.30;;;;;;5055630;28;20035;-83
2021/07/24 06:33:12;;;;;;;23.85;13.60;;;18.90;84.30;;;;;;5073057;28;20374;-84
2021/07/24 06:35:38;;;;;;;20.38;12.75;;;18.90;84.00;;;;;;5055310;28;20037;-84
2021/07/24 06:38:04;;;;;;;21.92;12.80;;;19.00;83.80;;;;;;5064163;28;20036;-83
2021/07/24 06:40:29;;;;;;;20.48;12.48;;;19.00;83.90;;;;;;5072461;28;20028;-84
2021/07/24 06:42:55;;;;;;;23.55;12.73;;;19.00;83.90;;;;;;5049392;28;20029;-85
2021/07/24 06:45:22;;;;;;;20.30;12.80;;;19.10;83.90;;;;;;5044839;28;20512;-84
2021/07/24 06:47:48;;;;;;;19.25;13.00;;;19.20;83.70;;;;;;5072523;28;20028;-84
2021/07/24 06:50:13;;;;;;;17.63;12.48;;;19.20;83.30;;;;;;5071691;28;20047;-84
2021/07/24 06:52:39;;;;;;;18.08;12.52;;;19.30;83.00;;;;;;5068887;28;20477;-84
2021/07/24 06:55:05;;;;;;;19.58;12.43;;;19.30;82.80;;;;;;5038002;28;20045;-85
2021/07/24 06:57:31;;;;;;;21.98;12.65;;;19.40;82.70;;;;;;5058610;28;20036;-84
2021/07/24 06:59:57;;;;;;;25.05;12.77;;;19.40;82.60;;;;;;5068078;28;20028;-82
2021/07/24 07:02:23;;;;;;;17.63;12.32;;;19.50;82.30;;;;;;5055514;28;20025;-81
2021/07/24 07:04:48;;;;;;;18.73;12.30;;;19.50;82.40;;;;;;5068425;28;20028;-80
2021/07/24 07:07:14;;;;;;;16.90;11.98;;;19.50;82.30;;;;;;5076006;28;20032;-80
2021/07/24 07:09:40;;;;;;;23.13;13.05;;;19.60;82.40;;;;;;5075836;28;20036;-80
2021/07/24 07:12:05;;;;;;;15.80;11.60;;;19.60;82.30;;;;;;5080417;28;20112;-80
2021/07/24 07:14:31;;;;;;;23.77;12.90;;;19.60;82.00;;;;;;5087009;28;20037;-80
2021/07/24 07:16:57;;;;;;;20.30;12.32;;;19.60;81.90;;;;;;5043347;28;20024;-81
2021/07/24 07:19:22;;;;;;;22.40;13.10;;;19.60;82.00;;;;;;5058845;28;20533;-82
2021/07/24 07:21:48;;;;;;;16.88;12.05;;;19.60;82.00;;;;;;5074106;28;20476;-82
2021/07/24 07:24:15;;;;;;;17.60;12.65;;;19.60;82.00;;;;;;5096102;28;20469;-82
2021/07/24 07:26:41;;;;;;;14.63;11.70;;;19.70;82.10;;;;;;5081613;28;20064;-81
2021/07/24 07:29:07;;;;;;;17.60;11.95;;;19.80;82.00;;;;;;5076398;28;20024;-81
2021/07/24 07:31:34;;;;;;;16.10;11.93;;;19.90;81.70;;;;;;5075166;28;20033;-81
2021/07/24 07:34:01;;;;;;;17.30;12.02;;;20.00;81.30;;;;;;5076475;28;20032;-82
2021/07/24 07:36:27;;;;;;;19.35;12.32;;;20.00;81.40;;;;;;5074951;28;20024;-82
2021/07/24 07:38:54;;;;;;;18.33;12.05;;;20.10;81.20;;;;;;5042073;28;20020;-81
2021/07/24 07:41:19;;;;;;;16.15;12.15;;;20.20;81.10;;;;;;5076145;28;20029;-83
2021/07/24 07:43:49;;;;;;;15.65;11.68;;;20.20;80.90;;;;;;5076327;28;20043;-82
2021/07/24 07:46:15;;;;;;;19.92;13.50;;;20.30;81.20;;;;;;5074165;28;20124;-82
2021/07/24 07:48:40;;;;;;;22.05;12.90;;;20.30;80.70;;;;;;5074762;28;20489;-82
2021/07/24 07:51:07;;;;;;;19.05;12.10;;;20.40;80.60;;;;;;5068047;28;20035;-83
2021/07/24 07:53:33;;;;;;;17.75;12.48;;;20.40;80.30;;;;;;5074819;28;20067;-82
2021/07/24 07:56:00;;;;;;;21.40;12.98;;;20.40;80.90;;;;;;5074456;28;20057;-82
2021/07/24 07:58:26;;;;;;;13.85;11.10;;;20.60;80.30;;;;;;5074339;28;20099;-82
2021/07/24 08:00:55;;;;;;;16.75;11.85;;;20.70;80.20;;;;;;5075152;28;20048;-83
2021/07/24 08:03:24;;;;;;;15.60;11.50;;;20.90;79.70;;;;;;5055861;28;20413;-83
2021/07/24 08:05:53;;;;;;;18.98;11.60;;;21.10;78.80;;;;;;5057912;28;20025;-82
2021/07/24 08:08:19;;;;;;;14.70;10.70;;;21.30;78.40;;;;;;5067711;28;20485;-82
2021/07/24 08:10:44;;;;;;;22.52;10.95;;;21.40;77.70;;;;;;5075855;28;20044;-81
2021/07/24 08:13:15;;;;;;;14.73;10.40;;;21.50;77.30;;;;;;5047269;28;20083;-82
2021/07/24 08:15:42;;;;;;;22.75;11.45;;;21.60;77.80;;;;;;5058425;28;20033;-82
2021/07/24 08:18:08;;;;;;;17.00;11.93;;;21.80;76.40;;;;;;5075826;28;20039;-82
2021/07/24 08:20:34;;;;;;;17.50;10.38;;;22.00;76.00;;;;;;5074226;28;20029;-82
2021/07/24 08:23:02;;;;;;;21.23;11.05;;;22.10;75.80;;;;;;5074292;28;20036;-82
2021/07/24 08:25:28;;;;;;;17.58;11.05;;;22.10;74.70;;;;;;5075910;28;20024;-82
2021/07/24 08:27:54;;;;;;;26.85;12.15;;;22.10;74.40;;;;;;5074158;28;20039;-82
2021/07/24 08:30:20;;;;;;;20.23;11.38;;;22.10;74.90;;;;;;5075463;28;20033;-81
2021/07/24 08:32:45;;;;;;;17.50;11.32;;;22.00;74.80;;;;;;5075048;28;20394;-82
2021/07/24 08:35:11;;;;;;;16.98;10.93;;;22.00;75.50;;;;;;5057328;28;20059;-82
2021/07/24 08:37:37;;;;;;;16.35;10.98;;;22.10;74.90;;;;;;5075057;28;20028;-83
2021/07/24 08:40:03;;;;;;;18.23;11.52;;;22.10;75.10;;;;;;5075404;28;20094;-82
2021/07/24 08:42:31;;;;;;;16.20;10.82;;;22.10;75.30;;;;;;5057201;28;20116;-85
2021/07/24 08:45:01;;;;;;;16.80;10.80;;;22.10;75.10;;;;;;5055041;28;20017;-85
2021/07/24 08:47:30;;;;;;;99.10;28.90;;;22.20;75.00;;;;;;5053852;28;20107;-85
2021/07/24 08:49:56;;;;;;;47.92;17.45;;;22.30;74.90;;;;;;5053654;28;20029;-85
2021/07/24 08:52:27;;;;;;;20.38;11.90;;;22.40;74.60;;;;;;5055078;28;20068;-85
2021/07/24 08:54:52;;;;;;;14.57;9.88;;;22.50;74.10;;;;;;5053592;28;20056;-85
2021/07/24 08:57:22;;;;;;;18.08;10.40;;;22.60;73.90;;;;;;5054812;28;20033;-85
2021/07/24 08:59:49;;;;;;;15.60;10.10;;;22.70;73.50;;;;;;5059845;28;20031;-87
2021/07/24 09:02:23;;;;;;;15.38;9.93;;;22.70;73.50;;;;;;5074755;28;20103;-86
2021/07/24 09:04:51;;;;;;;15.40;10.50;;;22.70;73.70;;;;;;5074718;28;20059;-86
2021/07/24 09:07:17;;;;;;;14.73;10.38;;;22.70;73.70;;;;;;5073509;28;20032;-86
2021/07/24 09:09:43;;;;;;;15.00;10.10;;;22.70;74.40;;;;;;5056667;28;20029;-87
2021/07/24 09:12:10;;;;;;;21.10;10.82;;;22.70;73.50;;;;;;5056746;28;20029;-87
2021/07/24 09:14:37;;;;;;;17.55;10.00;;;22.70;73.40;;;;;;5063996;28;20052;-86
2021/07/24 09:17:03;;;;;;;18.75;10.38;;;22.70;73.70;;;;;;5053432;28;20524;-87
2021/07/24 09:19:31;;;;;;;15.77;10.95;;;22.60;73.80;;;;;;5052924;28;20040;-85
2021/07/24 09:21:56;;;;;;;13.52;9.95;;;22.70;74.00;;;;;;5060202;28;20352;-79
2021/07/24 09:24:26;;;;;;;14.32;10.35;;;22.60;74.10;;;;;;5073029;28;20130;-79
2021/07/24 09:26:52;;;;;;;14.13;10.27;;;22.60;74.30;;;;;;5056395;28;20060;-79
2021/07/24 09:29:19;;;;;;;14.57;10.40;;;22.60;74.40;;;;;;5072995;28;20107;-79
2021/07/24 09:31:45;;;;;;;13.70;10.32;;;22.60;74.10;;;;;;5076855;28;20033;-86
2021/07/24 09:34:15;;;;;;;13.88;10.52;;;22.60;74.10;;;;;;5074386;28;20104;-86
2021/07/24 09:36:44;;;;;;;19.40;11.27;;;22.60;74.20;;;;;;5061468;28;20385;-87
2021/07/24 09:39:12;;;;;;;14.65;10.38;;;22.50;74.40;;;;;;5054255;28;20154;-87
2021/07/24 09:41:43;;;;;;;15.93;10.57;;;22.50;74.80;;;;;;5052772;28;20573;-87
2021/07/24 09:44:09;;;;;;;16.92;9.90;;;22.60;74.80;;;;;;5045509;28;20040;-88
2021/07/24 09:46:35;;;;;;;20.33;11.75;;;22.60;74.50;;;;;;5073911;28;20037;-86
2021/07/24 09:49:14;;;;;;;19.77;10.82;;;22.70;74.60;;;;;;5071836;28;20051;-88
2021/07/24 09:51:42;;;;;;;15.18;11.07;;;22.70;75.20;;;;;;5093454;28;20036;-88
2021/07/24 09:54:28;;;;;;;20.40;10.90;;;22.70;75.20;;;;;;5072381;28;20076;-87
2021/07/24 09:56:56;;;;;;;14.23;10.82;;;22.70;75.70;;;;;;5072298;28;20051;-88
2021/07/24 09:59:24;;;;;;;;;;;22.70;75.90;;;;;;5073886;28;20012;-86
2021/07/24 10:01:57;;;;;;;15.95;10.55;;;22.70;75.70;;;;;;5071506;28;20266;-85
2021/07/24 10:04:41;;;;;;;16.88;10.57;;;22.70;75.70;;;;;;5076523;28;20025;-85
2021/07/24 10:07:09;;;;;;;12.90;10.93;;;22.70;76.50;;;;;;5082457;28;20031;-84
2021/07/24 10:09:36;;;;;;;13.48;10.75;;;22.70;76.90;;;;;;5090348;28;20031;-84
2021/07/24 10:12:04;;;;;;;14.98;10.85;;;22.70;76.90;;;;;;5072150;28;20029;-84
2021/07/24 10:14:30;;;;;;;14.10;10.55;;;22.70;75.80;;;;;;5073193;28;20045;-84
2021/07/24 10:16:59;;;;;;;14.77;10.60;;;22.80;75.70;;;;;;5072210;28;20033;-85
2021/07/24 10:19:25;;;;;;;12.70;10.40;;;22.80;76.10;;;;;;5073487;28;20024;-84
2021/07/24 10:21:53;;;;;;;14.27;10.80;;;22.70;76.30;;;;;;5073419;28;20036;-84
2021/07/24 10:24:19;;;;;;;17.57;10.30;;;22.70;76.70;;;;;;5073412;28;20024;-84
2021/07/24 10:27:16;;;;;;;16.45;10.82;;;22.70;77.90;;;;;;5072513;28;20032;-84
2021/07/24 10:29:57;;;;;;;15.27;10.90;;;22.70;77.40;;;;;;5053215;28;20054;-85
2021/07/24 10:32:28;;;;;;;16.58;10.48;;;22.70;78.30;;;;;;5053307;28;20021;-85
2021/07/24 10:34:55;;;;;;;14.55;10.43;;;22.60;77.70;;;;;;5064078;28;20154;-85
2021/07/24 10:37:49;;;;;;;19.45;11.52;;;22.70;77.50;;;;;;5073273;28;20029;-85
2021/07/24 10:40:22;;;;;;;16.77;11.02;;;22.60;77.10;;;;;;5072017;28;20115;-84
2021/07/24 10:42:49;;;;;;;14.57;10.43;;;22.60;76.30;;;;;;5072018;28;20100;-84
2021/07/24 10:45:45;;;;;;;19.45;11.23;;;22.60;76.40;;;;;;5070213;28;20488;-84
2021/07/24 10:48:13;;;;;;;15.43;10.23;;;22.60;76.60;;;;;;5072590;28;20059;-78
2021/07/24 10:50:54;;;;;;;15.90;11.30;;;22.60;77.40;;;;;;5072679;28;20104;-78
2021/07/24 10:53:23;;;;;;;13.90;10.40;;;22.70;77.40;;;;;;5070301;28;20065;-78
2021/07/24 10:55:49;;;;;;;;;;;22.60;77.20;;;;;;5072861;28;20074;-79
2021/07/24 10:58:22;;;;;;;21.42;11.40;;;22.70;77.10;;;;;;5072389;28;19916;-78
2021/07/24 11:00:54;;;;;;;17.23;11.20;;;22.60;77.10;;;;;;5071664;28;20043;-80
2021/07/24 11:03:32;;;;;;;16.80;11.02;;;22.60;77.00;;;;;;5055059;28;20041;-78
2021/07/24 11:05:59;;;;;;;17.55;11.55;;;22.70;76.80;;;;;;5069048;28;20477;-78
2021/07/24 11:08:59;;;;;;;15.20;11.13;;;22.70;77.10;;;;;;5070091;28;20035;-77
2021/07/24 11:11:40;;;;;;;16.75;10.55;;;22.70;76.90;;;;;;5070018;28;20119;-77
2021/07/24 11:14:07;;;;;;;19.17;11.70;;;22.70;76.70;;;;;;5070497;28;20036;-76
2021/07/24 11:17:06;;;;;;;18.25;11.00;;;22.70;76.90;;;;;;5071838;28;20385;-75
2021/07/24 11:19:36;;;;;;;16.13;11.50;;;22.70;77.10;;;;;;5072242;28;20017;-76
2021/07/24 11:22:11;;;;;;;20.83;11.95;;;22.70;77.30;;;;;;5070775;28;20056;-76
2021/07/24 11:24:38;;;;;;;25.75;15.38;;;22.80;77.40;;;;;;5063562;28;20024;-77
2021/07/24 11:27:05;;;;;;;22.10;12.00;;;22.70;77.70;;;;;;5069471;28;20033;-76
2021/07/24 11:29:31;;;;;;;17.05;11.60;;;22.80;78.10;;;;;;5065179;28;20028;-75
2021/07/24 11:32:02;;;;;;;18.90;10.95;;;22.70;78.60;;;;;;5069996;28;20056;-75
2021/07/24 11:34:30;;;;;;;19.40;11.63;;;22.70;78.20;;;;;;5069671;28;20501;-76
2021/07/24 11:36:55;;;;;;;23.17;11.88;;;22.70;77.70;;;;;;5070919;28;20519;-75
2021/07/24 11:39:29;;;;;;;23.35;12.25;;;22.60;77.90;;;;;;5070255;28;20020;-76
2021/07/24 11:41:56;;;;;;;16.27;11.20;;;22.60;78.80;;;;;;5075177;28;20082;-76
2021/07/24 11:44:25;;;;;;;17.90;11.73;;;22.50;79.50;;;;;;5074094;28;20093;-75
2021/07/24 11:47:01;;;;;;;19.45;11.75;;;22.50;79.60;;;;;;5074245;28;20016;-75
2021/07/24 11:49:28;;;;;;;16.45;11.48;;;22.50;79.70;;;;;;5072257;28;20449;-77
2021/07/24 11:51:54;;;;;;;23.42;12.73;;;22.50;79.70;;;;;;5057639;28;20089;-76
2021/07/24 11:54:49;;;;;;;19.40;12.25;;;22.40;80.00;;;;;;5073090;28;20492;-75
2021/07/24 11:57:27;;;;;;;20.13;11.95;;;22.40;80.40;;;;;;5070859;28;20056;-76
2021/07/24 11:59:53;;;;;;;20.67;12.65;;;22.40;80.90;;;;;;5075158;28;20094;-76
2021/07/24 12:02:20;;;;;;;18.45;13.18;;;22.30;81.50;;;;;;5040908;28;20060;-76
2021/07/24 12:04:49;;;;;;;17.33;13.00;;;22.30;80.90;;;;;;5074420;28;20030;-76
2021/07/24 12:07:17;;;;;;;18.85;14.90;;;22.30;80.90;;;;;;5074191;28;20023;-77
2021/07/24 12:09:44;;;;;;;17.10;14.02;;;22.20;81.10;;;;;;5057355;28;20029;-76
2021/07/24 12:12:10;;;;;;;19.33;13.93;;;22.20;81.40;;;;;;5073422;28;20485;-76
2021/07/24 12:14:36;;;;;;;24.45;15.65;;;22.20;82.00;;;;;;5069562;28;20029;-77
2021/07/24 12:17:12;;;;;;;19.13;15.13;;;22.20;82.50;;;;;;5074253;28;20481;-76
2021/07/24 12:19:39;;;;;;;22.33;15.40;;;22.10;83.00;;;;;;5070550;28;20693;-76
2021/07/24 12:22:11;;;;;;;22.23;15.73;;;22.10;83.10;;;;;;5073633;28;20039;-76
2021/07/24 12:24:37;;;;;;;17.85;15.10;;;22.00;83.80;;;;;;5075121;28;20025;-75
2021/07/24 12:27:12;;;;;;;22.52;16.55;;;21.90;84.00;;;;;;5057004;28;20028;-76
2021/07/24 12:29:54;;;;;;;19.90;15.60;;;21.90;84.30;;;;;;5068560;28;20028;-76
2021/07/24 12:32:36;;;;;;;20.10;16.00;;;21.80;84.50;;;;;;5070917;28;20031;-76
2021/07/24 12:35:16;;;;;;;25.00;17.73;;;21.70;84.50;;;;;;5066772;28;20485;-76